Niagara Falls International Airport
KIAG : rendu visible

Aérodrome :











RETROUVEZ-NOUS SUR...

 
LOGIN :

S'inscrire | Disclaimer

   EN    FR    IT 

 









Légende :    VFR   VFR Marginal   IFR   IFR Intensif   IFR Très Intensif
Visi : 
Plafond : 
>= 8 km
>= 3000ft
5 à 8 km
1000 à 3000 ft
1500m à 5 km
500 à 1000 ft
800 à 1500m
200 à 500 ft
< 800m
< 200 ft
Symboles :   Orages  Brouillard  Fortes neiges  Fortes précipitations  Vent > 20 kt






- Altitude de l'aérodrome : 589 ft
- Code IATA : IAG


KIAG - Niagara Falls International

DERNIER METAR :
  • 261353Z 23013KT 10SM BKN011 01/M01 A2974 RMK AO2 SLP083 T00111006

METARs EXPIRÉS :
  • 261253Z 23012KT 10SM OVC010 01/M01 A2973 RMK AO2 SNB30E39 CIG 009V013 SLP081 P0000 T00061006
  • 261228Z 24011KT 8SM OVC009 01/M01 A2973 RMK AO2 T00061006
  • 261153Z 24010KT 10SM OVC010 01/M01 A2973 RMK AO2 CIG 007V013 SLP081 60000 70002 T00061006 10011 20000 58000

TAF KIAG
Valide du 26 à 12h jusqu'au 27 à 12h UTC


261133Z 2612/2712 24011G18KT P6SM -SN OVC008
FM261500 24013G21KT P6SM OVC015
FM262200 24014G23KT 2SM -SHSN OVC012
FM270800 26011G18KT 5SM -SHSN OVC012



MET'MAP, la Météo Aéronautique d'un coup d'oeil ! - Copyright ORBIFLY Décembre 2007 - Disclaimer

ORBIFLY MET'MAP TEAM :

Programmation & Développement : Alexandra Zaïnal
Sur une idée originale de : Baudouin d'Aumeries
Assistance à la programmation : Marc-Olivier Méhu
Soutien technique & logistique : Manuel Goepfert

Contact : metmap@orbifly.com




SOURCES & CREDITS :

   NOAA       Earth
Advisory